Time;durP1;ratioP1;P1;durP2;ratioP2;P2;SDS_P1;SDS_P2;PMS_P1;PMS_P2;Temp;Humidity;BMP_temperature;BMP_pressure;BME280_temperature;BME280_humidity;BME280_pressure;Samples;Min_cycle;Max_cycle;Signal;HPM_P1;HPM_P2
2022/06/16 00:00:27;;;;;;;13.18;5.07;;;23.60;51.60;;;;;;6132016;28;80725;-71
2022/06/16 00:03:28;;;;;;;10.40;5.60;;;23.60;51.70;;;;;;6134443;28;80473;-70
2022/06/16 00:06:28;;;;;;;10.82;5.45;;;23.60;51.60;;;;;;6134578;28;81212;-70
2022/06/16 00:09:29;;;;;;;11.70;5.38;;;23.60;51.70;;;;;;6134443;28;81355;-71
2022/06/16 00:12:29;;;;;;;11.38;5.50;;;23.60;51.80;;;;;;6135451;28;80406;-71
2022/06/16 00:15:30;;;;;;;11.68;5.35;;;23.60;51.90;;;;;;6139326;28;80436;-73
2022/06/16 00:18:30;;;;;;;10.85;4.95;;;23.60;51.80;;;;;;6146669;28;80450;-73
2022/06/16 00:21:31;;;;;;;11.13;4.97;;;23.60;51.90;;;;;;6134311;28;81079;-72
2022/06/16 00:24:31;;;;;;;11.85;5.75;;;23.60;51.90;;;;;;6142268;28;80728;-72
2022/06/16 00:27:32;;;;;;;10.43;5.20;;;23.60;51.90;;;;;;6138036;28;80475;-72
2022/06/16 00:30:32;;;;;;;8.02;4.70;;;23.60;51.90;;;;;;6139614;28;81460;-72
2022/06/16 00:33:32;;;;;;;11.43;5.00;;;23.60;51.90;;;;;;6138978;28;80461;-72
2022/06/16 00:36:35;;;;;;;7.05;4.28;;;23.60;52.00;;;;;;6136915;28;80942;-71
2022/06/16 00:39:37;;;;;;;7.97;4.60;;;23.60;52.00;;;;;;6138347;28;80489;-72
2022/06/16 00:42:37;;;;;;;14.30;4.57;;;23.60;52.10;;;;;;6143337;28;80746;-72
2022/06/16 00:45:38;;;;;;;8.90;4.70;;;23.60;52.30;;;;;;6137836;28;80825;-70
2022/06/16 00:48:41;;;;;;;6.05;3.70;;;23.60;52.40;;;;;;6135636;28;82859;-71
2022/06/16 00:51:42;;;;;;;9.18;4.55;;;23.60;52.40;;;;;;6132834;28;81749;-71
2022/06/16 00:54:42;;;;;;;7.60;4.45;;;23.60;53.10;;;;;;6135920;28;83267;-71
2022/06/16 00:57:43;;;;;;;6.43;4.40;;;23.60;52.50;;;;;;6140584;28;80155;-71
2022/06/16 01:00:46;;;;;;;8.40;4.47;;;23.60;52.60;;;;;;6139524;28;81768;-71
2022/06/16 01:07:06;;;;;;;6.55;3.83;;;23.60;52.70;;;;;;6136591;28;81817;-71
2022/06/16 01:10:07;;;;;;;6.88;3.83;;;23.60;52.70;;;;;;6143453;28;81783;-70
2022/06/16 01:16:27;;;;;;;7.82;4.28;;;23.60;52.80;;;;;;6138259;28;83170;-72
2022/06/16 01:19:27;;;;;;;7.50;3.35;;;23.50;52.80;;;;;;6137807;28;81773;-72
2022/06/16 01:22:28;;;;;;;9.30;4.38;;;23.50;52.90;;;;;;6137398;28;80375;-72
2022/06/16 01:25:28;;;;;;;8.18;4.28;;;23.60;52.90;;;;;;6137281;28;81504;-72
2022/06/16 01:28:29;;;;;;;6.88;3.95;;;23.50;52.90;;;;;;6133664;28;80526;-71
2022/06/16 01:31:30;;;;;;;9.10;3.83;;;23.50;52.90;;;;;;6142263;28;83271;-70
2022/06/16 01:34:31;;;;;;;9.18;4.90;;;23.50;52.90;;;;;;6140868;28;81463;-72
2022/06/16 01:37:31;;;;;;;6.28;3.58;;;23.50;52.90;;;;;;6134241;28;83165;-71
2022/06/16 01:40:32;;;;;;;8.43;4.07;;;23.50;52.90;;;;;;6130242;28;83546;-72
2022/06/16 01:43:34;;;;;;;6.93;4.05;;;23.50;52.90;;;;;;6134716;28;83312;-72
2022/06/16 01:46:35;;;;;;;5.35;3.13;;;23.50;52.90;;;;;;6134953;28;83198;-72
2022/06/16 01:49:40;;;;;;;5.47;3.72;;;23.50;52.90;;;;;;6138700;28;83001;-73
2022/06/16 01:52:41;;;;;;;8.40;3.97;;;23.50;52.90;;;;;;6141118;28;81844;-72
2022/06/16 01:55:42;;;;;;;6.78;3.13;;;23.50;53.00;;;;;;6136150;28;82050;-72
2022/06/16 01:58:43;;;;;;;5.65;3.95;;;23.50;53.00;;;;;;6134836;28;83806;-72
2022/06/16 02:01:44;;;;;;;8.48;3.75;;;23.50;53.00;;;;;;6134777;28;81863;-72
2022/06/16 02:04:45;;;;;;;5.93;3.47;;;23.50;53.00;;;;;;6135207;28;82745;-71
2022/06/16 02:07:45;;;;;;;6.13;3.60;;;23.50;53.10;;;;;;6138747;28;81830;-70
2022/06/16 02:10:46;;;;;;;4.97;3.35;;;23.50;53.10;;;;;;6137901;28;81265;-71
2022/06/16 02:13:47;;;;;;;5.05;3.08;;;23.50;53.10;;;;;;6135358;28;83275;-71
2022/06/16 02:16:48;;;;;;;6.38;3.55;;;23.50;53.10;;;;;;6135024;28;82675;-71
2022/06/16 02:19:48;;;;;;;4.88;3.40;;;23.50;53.10;;;;;;6129339;28;82226;-71
2022/06/16 02:22:49;;;;;;;6.20;3.22;;;23.50;53.20;;;;;;6134506;28;83324;-71
2022/06/16 02:25:50;;;;;;;6.35;4.03;;;23.50;53.20;;;;;;6135327;28;82197;-72
2022/06/16 02:28:51;;;;;;;6.93;3.60;;;23.50;53.20;;;;;;6127727;28;81563;-71
2022/06/16 02:31:55;;;;;;;4.93;2.80;;;23.50;53.20;;;;;;6135531;28;83237;-71
2022/06/16 02:34:55;;;;;;;7.88;3.20;;;23.50;53.30;;;;;;6129077;28;83384;-72
2022/06/16 02:37:56;;;;;;;4.78;3.33;;;23.50;53.30;;;;;;6135973;28;83193;-72
2022/06/16 02:40:56;;;;;;;7.38;3.70;;;23.50;53.30;;;;;;6138028;28;82137;-71
2022/06/16 02:43:57;;;;;;;6.60;3.63;;;23.40;53.20;;;;;;6131354;28;83367;-72
2022/06/16 02:46:58;;;;;;;7.18;3.45;;;23.40;53.30;;;;;;6135528;28;80606;-72
2022/06/16 02:49:58;;;;;;;4.68;3.40;;;23.50;53.40;;;;;;6134222;28;82250;-72
2022/06/16 02:53:00;;;;;;;10.07;3.97;;;23.50;53.30;;;;;;6133877;28;82757;-72
2022/06/16 02:56:00;;;;;;;4.82;3.17;;;23.50;53.40;;;;;;6134942;28;83597;-73
2022/06/16 02:59:01;;;;;;;4.78;2.75;;;23.40;53.30;;;;;;6138786;28;80339;-73
2022/06/16 03:02:03;;;;;;;5.70;3.03;;;23.40;53.30;;;;;;6131659;28;83515;-73
2022/06/16 03:05:08;;;;;;;6.32;3.50;;;23.40;53.40;;;;;;6132891;28;81609;-73
2022/06/16 03:08:08;;;;;;;4.55;3.00;;;23.40;53.40;;;;;;6127949;28;82738;-72
2022/06/16 03:11:14;;;;;;;;;;;23.40;53.40;;;;;;6134138;28;82186;-72
2022/06/16 03:14:19;;;;;;;6.45;3.20;;;23.40;53.40;;;;;;6141650;28;83261;-72
2022/06/16 03:17:22;;;;;;;7.68;3.55;;;23.50;53.40;;;;;;6128764;28;80230;-72
2022/06/16 03:20:22;;;;;;;5.32;3.53;;;23.50;53.40;;;;;;6130360;28;83193;-73
2022/06/16 03:23:23;;;;;;;6.78;3.20;;;23.50;53.50;;;;;;6134432;28;81654;-72
2022/06/16 03:26:25;;;;;;;7.00;3.58;;;23.50;53.40;;;;;;6124551;28;82880;-72
2022/06/16 03:29:29;;;;;;;6.82;3.38;;;23.40;53.40;;;;;;6135020;28;83169;-71
2022/06/16 03:32:30;;;;;;;5.25;3.20;;;23.40;53.40;;;;;;6134930;28;81462;-71
2022/06/16 03:35:32;;;;;;;6.50;3.67;;;23.40;53.40;;;;;;6135803;28;83703;-72
2022/06/16 03:41:34;;;;;;;6.03;3.38;;;23.40;53.50;;;;;;6136342;28;82546;-73
2022/06/16 03:44:38;;;;;;;8.43;3.90;;;23.40;53.60;;;;;;6133275;28;87457;-71
2022/06/16 03:47:40;;;;;;;7.78;3.58;;;23.40;53.50;;;;;;6136822;28;82483;-73
2022/06/16 03:50:41;;;;;;;6.13;3.33;;;23.40;53.60;;;;;;6136778;28;83242;-72
2022/06/16 03:53:42;;;;;;;6.88;3.55;;;23.40;53.50;;;;;;6138338;28;83606;-71
2022/06/16 03:56:42;;;;;;;6.80;3.42;;;23.40;53.60;;;;;;6136756;28;87276;-71
2022/06/16 03:59:48;;;;;;;6.30;3.17;;;23.40;53.60;;;;;;6129752;28;82925;-70
2022/06/16 04:06:21;;;;;;;6.85;3.70;;;23.40;53.60;;;;;;6133982;28;81918;-70
2022/06/16 04:09:23;;;;;;;3.80;3.03;;;23.40;53.70;;;;;;6134750;28;82748;-71
2022/06/16 04:12:24;;;;;;;4.80;3.15;;;23.40;53.70;;;;;;6134266;28;82393;-71
2022/06/16 04:15:24;;;;;;;5.10;3.35;;;23.40;53.80;;;;;;6133409;28;83831;-65
2022/06/16 04:18:27;;;;;;;9.20;4.18;;;23.40;53.80;;;;;;6136012;28;83305;-70
2022/06/16 04:21:28;;;;;;;5.80;3.42;;;23.40;53.80;;;;;;6129111;28;82738;-70
2022/06/16 04:24:44;;;;;;;6.47;3.20;;;23.40;53.80;;;;;;6129473;28;83250;-72
2022/06/16 04:27:45;;;;;;;5.57;3.17;;;23.40;53.80;;;;;;6139990;28;80496;-70
2022/06/16 04:30:47;;;;;;;5.93;3.20;;;23.50;53.80;;;;;;6132513;28;83078;-71
2022/06/16 04:33:47;;;;;;;4.18;2.97;;;23.50;54.00;;;;;;6132319;28;83063;-69
2022/06/16 04:36:48;;;;;;;4.97;3.80;;;23.50;53.90;;;;;;6131265;28;82989;-69
2022/06/16 04:39:52;;;;;;;5.85;3.45;;;23.60;53.90;;;;;;6124566;28;80675;-70
2022/06/16 04:42:53;;;;;;;6.35;3.58;;;23.60;53.70;;;;;;6130445;28;83120;-69
2022/06/16 04:45:55;;;;;;;5.25;3.33;;;23.70;54.00;;;;;;6114760;28;81297;-69
2022/06/16 04:48:59;;;;;;;7.70;3.23;;;23.60;54.20;;;;;;6130659;28;81413;-70
2022/06/16 04:52:00;;;;;;;7.82;3.40;;;23.70;54.10;;;;;;6130508;28;82773;-69
2022/06/16 04:55:04;;;;;;;4.65;2.80;;;23.70;54.00;;;;;;6125484;28;82994;-67
2022/06/16 04:58:36;;;;;;;4.38;3.20;;;23.70;54.30;;;;;;6115862;28;80530;-69
2022/06/16 05:02:00;;;;;;;4.78;3.15;;;23.70;54.50;;;;;;6105182;28;80812;-68
2022/06/16 05:05:01;;;;;;;8.13;3.78;;;23.80;54.50;;;;;;6135851;28;80240;-69
2022/06/16 05:08:23;;;;;;;11.95;4.32;;;23.80;54.30;;;;;;6134224;28;82171;-68
2022/06/16 05:11:45;;;;;;;10.50;3.92;;;23.80;54.60;;;;;;6134311;28;83502;-68
2022/06/16 05:15:12;;;;;;;;;;;23.80;54.70;;;;;;6129161;28;86069;-68
2022/06/16 05:18:31;;;;;;;8.35;3.80;;;23.90;54.80;;;;;;6138295;28;79855;-69
2022/06/16 05:21:49;;;;;;;13.82;4.03;;;23.90;54.70;;;;;;6131182;28;80376;-68
2022/06/16 05:25:08;;;;;;;6.85;3.40;;;23.90;54.40;;;;;;6136989;28;81882;-69
2022/06/16 05:28:27;;;;;;;16.02;4.38;;;23.90;54.50;;;;;;6136359;28;80442;-68
2022/06/16 05:31:42;;;;;;;5.78;3.83;;;23.90;54.50;;;;;;6136438;28;80867;-68
2022/06/16 05:34:59;;;;;;;13.82;4.65;;;24.00;54.70;;;;;;6131605;28;81731;-68
2022/06/16 05:38:20;;;;;;;9.45;4.53;;;24.00;54.50;;;;;;6131768;28;81572;-67
2022/06/16 05:41:38;;;;;;;10.50;4.63;;;23.90;54.20;;;;;;6135333;28;83603;-67
2022/06/16 05:44:54;;;;;;;11.82;4.20;;;23.90;54.40;;;;;;6121339;28;83529;-67
2022/06/16 05:48:20;;;;;;;;;;;24.00;54.60;;;;;;6131556;28;85968;-68
2022/06/16 05:51:25;;;;;;;10.10;4.93;;;24.00;55.20;;;;;;6154074;28;83378;-68
2022/06/16 05:54:45;;;;;;;12.50;4.05;;;24.00;55.20;;;;;;6134248;28;81308;-69
2022/06/16 05:57:49;;;;;;;16.63;4.35;;;24.00;55.20;;;;;;6134721;28;83681;-67
2022/06/16 06:00:50;;;;;;;14.50;4.47;;;24.00;55.40;;;;;;6133493;28;82976;-67
2022/06/16 06:03:55;;;;;;;12.80;4.32;;;24.10;55.50;;;;;;6117938;28;83218;-68
2022/06/16 06:06:55;;;;;;;10.63;4.40;;;24.10;55.50;;;;;;6133249;28;82098;-70
2022/06/16 06:16:46;;;;;;;15.98;7.70;;;24.10;56.20;;;;;;6146410;28;80619;-70
2022/06/16 06:19:51;;;;;;;16.42;8.07;;;24.10;56.30;;;;;;6131119;28;81008;-71
2022/06/16 06:22:52;;;;;;;13.45;7.70;;;24.10;56.30;;;;;;6139587;28;82242;-69
2022/06/16 06:25:53;;;;;;;16.52;7.72;;;24.10;57.20;;;;;;6131802;28;82232;-69
2022/06/16 06:28:53;;;;;;;30.23;8.73;;;24.10;57.60;;;;;;6124695;28;86905;-69
2022/06/16 06:31:54;;;;;;;15.80;9.50;;;24.00;58.20;;;;;;6117712;28;82995;-71
2022/06/16 06:34:54;;;;;;;23.52;11.00;;;24.00;58.40;;;;;;6135401;28;82052;-64
2022/06/16 06:37:55;;;;;;;24.65;11.60;;;24.10;58.10;;;;;;6129874;28;83030;-71
2022/06/16 06:40:55;;;;;;;26.45;11.13;;;24.10;57.70;;;;;;6126533;28;86033;-72
2022/06/16 06:43:57;;;;;;;21.23;9.68;;;24.20;57.40;;;;;;6125406;28;83063;-73
2022/06/16 06:46:58;;;;;;;14.70;7.63;;;24.20;57.10;;;;;;6132253;28;86916;-71
2022/06/16 06:49:58;;;;;;;11.82;6.85;;;24.20;56.20;;;;;;6128692;28;80802;-69
2022/06/16 06:52:59;;;;;;;11.60;5.78;;;24.10;56.30;;;;;;6129895;28;80920;-70
2022/06/16 06:55:59;;;;;;;9.35;5.75;;;24.10;56.40;;;;;;6134764;28;81605;-70
2022/06/16 06:59:00;;;;;;;13.15;5.30;;;24.10;56.50;;;;;;6133925;28;81798;-70
2022/06/16 07:02:00;;;;;;;13.55;5.63;;;24.00;56.40;;;;;;6123272;28;80470;-74
2022/06/16 07:05:01;;;;;;;11.30;5.13;;;24.10;56.90;;;;;;6123547;28;80859;-73
2022/06/16 07:08:01;;;;;;;9.25;4.72;;;24.10;57.00;;;;;;6130836;28;81148;-71
2022/06/16 07:11:02;;;;;;;13.45;5.38;;;24.20;57.00;;;;;;6119566;28;80297;-73
2022/06/16 07:14:02;;;;;;;7.47;4.75;;;24.00;57.60;;;;;;6124751;28;80741;-72
2022/06/16 07:17:03;;;;;;;15.60;4.30;;;23.80;58.00;;;;;;6128130;28;80815;-71
2022/06/16 07:20:03;;;;;;;16.77;4.20;;;23.90;58.60;;;;;;6123729;28;81956;-73
2022/06/16 07:23:03;;;;;;;8.23;4.80;;;24.00;58.10;;;;;;6128353;28;80401;-72
2022/06/16 07:26:04;;;;;;;7.22;3.95;;;24.00;58.10;;;;;;6127749;28;80223;-73
2022/06/16 07:29:04;;;;;;;25.15;10.52;;;24.10;58.10;;;;;;6113109;28;81762;-70
2022/06/16 07:32:05;;;;;;;45.22;19.98;;;24.10;58.40;;;;;;6131764;28;83412;-71
2022/06/16 07:35:05;;;;;;;60.05;29.77;;;24.00;57.40;;;;;;6134057;28;82988;-72
2022/06/16 07:38:06;;;;;;;88.68;41.53;;;24.00;57.50;;;;;;6128763;28;82750;-69
2022/06/16 07:44:26;;;;;;;42.85;17.58;;;24.10;58.20;;;;;;6129189;28;86077;-73
2022/06/16 07:47:26;;;;;;;44.67;19.27;;;24.10;57.20;;;;;;6148249;28;84004;-80
2022/06/16 07:50:26;;;;;;;89.47;39.67;;;24.10;57.00;;;;;;6137402;28;83233;-75
2022/06/16 07:53:27;;;;;;;98.97;43.33;;;24.10;56.30;;;;;;6131942;28;83240;-76
2022/06/16 07:56:27;;;;;;;95.63;41.13;;;24.20;56.30;;;;;;6132139;28;82892;-77
2022/06/16 07:59:28;;;;;;;115.22;47.13;;;24.30;56.30;;;;;;6145746;28;83141;-76
2022/06/16 08:02:28;;;;;;;93.82;39.38;;;24.30;56.50;;;;;;6132971;28;83553;-74
2022/06/16 08:05:29;;;;;;;61.30;27.75;;;24.40;56.50;;;;;;6128200;28;83950;-65
2022/06/16 08:08:29;;;;;;;33.78;16.73;;;24.40;56.00;;;;;;6131048;28;83425;-68
2022/06/16 08:14:49;;;;;;;18.00;9.75;;;24.40;55.00;;;;;;6138092;28;83636;-72
2022/06/16 08:17:49;;;;;;;21.95;10.27;;;24.50;55.00;;;;;;6130304;28;82286;-72
2022/06/16 08:20:50;;;;;;;29.25;12.52;;;24.50;55.00;;;;;;6130213;28;82972;-71
2022/06/16 08:23:50;;;;;;;29.52;13.10;;;24.50;54.90;;;;;;6136397;28;85202;-66
2022/06/16 08:26:51;;;;;;;20.42;6.68;;;24.60;54.70;;;;;;6142747;28;82950;-69
2022/06/16 08:29:51;;;;;;;16.00;5.53;;;24.50;53.50;;;;;;6149706;28;83005;-70
2022/06/16 08:32:52;;;;;;;9.18;5.38;;;24.50;52.80;;;;;;6131597;28;80524;-71
2022/06/16 08:35:52;;;;;;;9.98;4.82;;;24.60;53.50;;;;;;6135804;28;81737;-65
2022/06/16 08:38:53;;;;;;;14.60;6.82;;;24.60;53.20;;;;;;6148690;28;80382;-69
2022/06/16 08:41:53;;;;;;;12.75;6.00;;;24.70;53.60;;;;;;6145846;28;80517;-70
2022/06/16 08:44:54;;;;;;;9.88;4.80;;;24.70;53.40;;;;;;6139090;28;80932;-69
2022/06/16 08:47:54;;;;;;;10.02;5.15;;;24.60;52.00;;;;;;6138973;28;80287;-69
2022/06/16 08:50:55;;;;;;;10.82;4.43;;;24.70;52.50;;;;;;6142041;28;80497;-74
2022/06/16 08:53:55;;;;;;;10.90;4.57;;;24.70;51.90;;;;;;6135473;28;81246;-69
2022/06/16 08:56:57;;;;;;;11.82;4.45;;;24.80;51.80;;;;;;6133632;28;81714;-69
2022/06/16 08:59:57;;;;;;;11.77;5.60;;;24.80;51.90;;;;;;6138368;28;80545;-71
2022/06/16 09:02:57;;;;;;;16.08;6.65;;;24.80;52.70;;;;;;6129622;28;80474;-70
2022/06/16 09:05:58;;;;;;;10.57;3.92;;;24.80;53.20;;;;;;6135092;28;80670;-71
2022/06/16 09:08:59;;;;;;;12.48;4.13;;;24.80;51.20;;;;;;6126764;28;80828;-69
2022/06/16 09:11:59;;;;;;;10.32;4.68;;;24.90;51.00;;;;;;6145373;28;81530;-71
2022/06/16 09:15:13;;;;;;;10.27;4.00;;;24.90;51.50;;;;;;6129641;28;80172;-70
2022/06/16 09:18:14;;;;;;;7.90;3.25;;;24.90;51.70;;;;;;6129759;28;80256;-70
2022/06/16 09:21:14;;;;;;;7.03;4.15;;;24.90;51.60;;;;;;6138158;28;80410;-72
2022/06/16 09:24:15;;;;;;;8.65;3.63;;;24.90;51.80;;;;;;6137517;28;81470;-73
2022/06/16 09:27:15;;;;;;;7.38;3.67;;;24.90;51.80;;;;;;6137843;28;80590;-70
2022/06/16 09:30:15;;;;;;;7.15;3.05;;;25.00;51.20;;;;;;6142582;28;80397;-71
2022/06/16 09:33:16;;;;;;;8.80;3.38;;;25.00;51.10;;;;;;6137856;28;80324;-72
2022/06/16 09:36:17;;;;;;;5.53;3.03;;;25.00;50.30;;;;;;6128612;28;81653;-72
2022/06/16 09:39:17;;;;;;;6.15;2.58;;;25.00;49.90;;;;;;6131890;28;80396;-71
2022/06/16 09:42:32;;;;;;;4.93;2.67;;;24.90;49.40;;;;;;6133878;28;80508;-71
2022/06/16 09:45:33;;;;;;;9.70;3.00;;;25.00;49.20;;;;;;6129997;28;80662;-70
2022/06/16 09:48:33;;;;;;;5.75;2.50;;;25.00;49.00;;;;;;6134659;28;81794;-70
2022/06/16 09:51:34;;;;;;;4.45;2.10;;;25.00;48.40;;;;;;6133399;28;80356;-71
2022/06/16 09:54:34;;;;;;;4.30;2.17;;;24.90;48.90;;;;;;6137525;28;80945;-71
2022/06/16 09:57:35;;;;;;;2.95;2.38;;;24.90;48.70;;;;;;6136287;28;81508;-71
2022/06/16 10:00:35;;;;;;;4.78;2.33;;;25.00;49.20;;;;;;6137053;28;81867;-69
2022/06/16 10:03:36;;;;;;;4.10;2.05;;;25.00;49.60;;;;;;6137568;28;81898;-70
2022/06/16 10:06:36;;;;;;;4.90;2.70;;;25.00;49.90;;;;;;6136681;28;81618;-69
2022/06/16 10:09:37;;;;;;;5.25;2.40;;;24.90;50.00;;;;;;6136625;28;81661;-69
2022/06/16 10:12:37;;;;;;;3.05;2.30;;;25.00;49.90;;;;;;6137103;28;80275;-69
2022/06/16 10:15:38;;;;;;;4.32;2.50;;;25.00;49.70;;;;;;6138295;28;80792;-70
2022/06/16 10:18:38;;;;;;;5.35;2.85;;;25.10;49.70;;;;;;6137603;28;80562;-64
2022/06/16 10:21:39;;;;;;;6.40;2.88;;;25.10;49.80;;;;;;6148469;28;81053;-69
2022/06/16 10:24:39;;;;;;;8.20;2.35;;;25.10;50.30;;;;;;6137566;28;80177;-73
2022/06/16 10:27:42;;;;;;;6.50;2.90;;;25.10;50.30;;;;;;6138371;28;80930;-72
2022/06/16 10:30:43;;;;;;;11.15;2.70;;;25.10;50.80;;;;;;6136041;28;82472;-69
2022/06/16 10:33:44;;;;;;;4.68;2.58;;;25.20;51.00;;;;;;6134335;28;80822;-69
2022/06/16 10:36:44;;;;;;;7.57;2.55;;;25.20;50.60;;;;;;6133462;28;80867;-68
2022/06/16 10:39:45;;;;;;;4.82;2.10;;;25.30;50.20;;;;;;6134257;28;81364;-68
2022/06/16 10:42:45;;;;;;;8.07;2.80;;;25.30;49.30;;;;;;6136419;28;81245;-69
2022/06/16 10:45:46;;;;;;;5.70;2.42;;;25.40;49.80;;;;;;6131293;28;80834;-69
2022/06/16 10:48:46;;;;;;;3.42;1.90;;;25.40;49.80;;;;;;6145853;28;81488;-68
2022/06/16 10:51:47;;;;;;;4.45;2.60;;;25.50;50.20;;;;;;6135186;28;81403;-68
2022/06/16 10:54:47;;;;;;;6.05;2.85;;;25.50;50.60;;;;;;6134353;28;80584;-70
2022/06/16 10:57:48;;;;;;;2.63;2.13;;;25.50;50.50;;;;;;6134046;28;80661;-71
2022/06/16 11:00:48;;;;;;;5.18;2.50;;;25.50;50.30;;;;;;6132038;28;80697;-70
2022/06/16 11:03:48;;;;;;;5.22;2.95;;;25.50;49.50;;;;;;6133278;28;80533;-70
2022/06/16 11:06:49;;;;;;;4.90;2.38;;;25.50;49.70;;;;;;6131358;28;80885;-71
2022/06/16 11:09:49;;;;;;;2.85;2.00;;;25.60;49.90;;;;;;6132002;28;80503;-68
2022/06/16 11:12:50;;;;;;;2.55;2.13;;;25.70;49.80;;;;;;6136148;28;80817;-68
2022/06/16 11:15:50;;;;;;;3.35;2.40;;;25.60;49.90;;;;;;6135717;28;80700;-66
2022/06/16 11:18:51;;;;;;;3.92;2.42;;;25.70;50.40;;;;;;6135623;28;81660;-68
2022/06/16 11:21:51;;;;;;;3.58;2.20;;;25.70;50.50;;;;;;6135547;28;86786;-69
2022/06/16 11:24:52;;;;;;;3.28;2.53;;;25.70;50.70;;;;;;6135730;28;80463;-70
2022/06/16 11:27:52;;;;;;;5.25;2.30;;;25.70;50.80;;;;;;6144460;28;80279;-70
2022/06/16 11:30:53;;;;;;;7.03;2.20;;;25.70;50.70;;;;;;6117646;28;80538;-70
2022/06/16 11:34:06;;;;;;;2.55;2.17;;;25.70;50.20;;;;;;6111777;28;80761;-71
2022/06/16 11:37:06;;;;;;;2.75;2.10;;;25.70;49.80;;;;;;6123515;28;83391;-70
2022/06/16 11:40:07;;;;;;;4.32;2.58;;;25.70;49.60;;;;;;6121580;28;81026;-71
2022/06/16 11:43:07;;;;;;;3.30;2.38;;;25.70;49.60;;;;;;6113030;28;80535;-71
2022/06/16 11:46:10;;;;;;;5.00;2.20;;;25.70;49.20;;;;;;6114160;28;80805;-72
2022/06/16 11:49:10;;;;;;;2.92;2.40;;;25.70;48.90;;;;;;6123141;28;80387;-71
2022/06/16 11:52:11;;;;;;;4.88;2.65;;;25.70;48.60;;;;;;6115534;28;81552;-70
2022/06/16 11:55:11;;;;;;;5.25;2.20;;;25.80;48.20;;;;;;6138542;28;80859;-69
2022/06/16 11:58:12;;;;;;;5.30;2.25;;;25.90;48.00;;;;;;6127291;28;80162;-69
2022/06/16 12:01:12;;;;;;;2.65;2.15;;;25.80;48.00;;;;;;6126081;28;80383;-69
2022/06/16 12:04:13;;;;;;;8.00;2.33;;;25.80;47.50;;;;;;6128295;28;80317;-69
2022/06/16 12:07:14;;;;;;;4.57;2.88;;;25.80;48.10;;;;;;6130575;28;80792;-71
2022/06/16 12:10:14;;;;;;;4.22;2.40;;;26.00;46.70;;;;;;6131924;28;80390;-70
2022/06/16 12:13:14;;;;;;;5.75;2.63;;;26.10;47.00;;;;;;6128714;28;80457;-70
2022/06/16 12:16:15;;;;;;;4.75;2.05;;;26.30;45.10;;;;;;6154240;28;81574;-70
2022/06/16 12:19:16;;;;;;;3.40;2.08;;;26.30;46.00;;;;;;6141711;28;80911;-68
2022/06/16 12:22:16;;;;;;;3.10;2.58;;;26.40;45.70;;;;;;6140721;28;80671;-64
2022/06/16 12:25:16;;;;;;;6.20;2.63;;;26.40;45.60;;;;;;6150654;28;80176;-70
2022/06/16 12:28:17;;;;;;;7.50;2.20;;;26.50;46.00;;;;;;6148674;28;80400;-71
2022/06/16 12:31:17;;;;;;;4.55;2.50;;;26.50;46.50;;;;;;6138400;28;80522;-72
2022/06/16 12:34:18;;;;;;;4.22;1.90;;;26.50;46.40;;;;;;6140957;28;80937;-72
2022/06/16 12:37:19;;;;;;;2.78;2.40;;;26.40;46.50;;;;;;6133773;28;80394;-70
2022/06/16 12:40:19;;;;;;;2.25;2.05;;;26.50;46.10;;;;;;6134679;28;81642;-71
2022/06/16 12:43:20;;;;;;;6.85;2.67;;;26.50;45.70;;;;;;6137940;28;81051;-70
2022/06/16 12:46:20;;;;;;;4.10;2.60;;;26.50;46.50;;;;;;6137193;28;81010;-70
2022/06/16 12:49:22;;;;;;;2.90;2.17;;;26.50;46.30;;;;;;6133516;28;80436;-70
2022/06/16 12:52:22;;;;;;;4.35;2.30;;;26.40;46.40;;;;;;6133116;28;80791;-69
2022/06/16 12:55:23;;;;;;;4.60;2.40;;;26.50;46.50;;;;;;6130825;28;81608;-70
2022/06/16 12:58:23;;;;;;;4.00;2.58;;;26.50;46.20;;;;;;6129540;28;80541;-70
2022/06/16 13:01:24;;;;;;;4.72;2.38;;;26.50;45.50;;;;;;6135642;28;80446;-69
2022/06/16 13:04:24;;;;;;;4.07;2.28;;;26.50;45.90;;;;;;6135130;28;80462;-69
2022/06/16 13:07:25;;;;;;;5.10;3.03;;;26.50;47.30;;;;;;6131331;28;80356;-69
2022/06/16 13:10:25;;;;;;;4.68;2.72;;;26.50;46.70;;;;;;6123795;28;81076;-70
2022/06/16 13:13:26;;;;;;;2.60;2.08;;;26.40;45.90;;;;;;6126608;28;80348;-71
2022/06/16 13:16:26;;;;;;;3.10;2.38;;;26.40;45.80;;;;;;6127009;28;80778;-72
2022/06/16 13:19:27;;;;;;;2.30;2.10;;;26.40;45.80;;;;;;6136634;28;81615;-70
2022/06/16 13:22:27;;;;;;;2.60;2.40;;;26.40;45.80;;;;;;6132466;28;81759;-70
2022/06/16 13:25:27;;;;;;;3.47;2.50;;;26.40;46.10;;;;;;6136716;28;80433;-71
2022/06/16 13:28:28;;;;;;;3.47;2.20;;;26.40;46.10;;;;;;6133959;28;80665;-70
2022/06/16 13:31:29;;;;;;;5.75;2.42;;;26.40;45.70;;;;;;6124475;28;80753;-71
2022/06/16 13:34:30;;;;;;;4.22;2.00;;;26.40;45.60;;;;;;6136960;28;80380;-72
2022/06/16 13:37:30;;;;;;;3.50;2.72;;;26.30;46.40;;;;;;6136653;28;80616;-70
2022/06/16 13:40:30;;;;;;;7.55;2.40;;;26.30;46.00;;;;;;6137162;28;80336;-70
2022/06/16 13:43:31;;;;;;;3.05;1.95;;;26.30;45.90;;;;;;6134190;28;81186;-72
2022/06/16 13:46:31;;;;;;;4.75;2.40;;;26.30;46.10;;;;;;6130479;28;80375;-71
2022/06/16 13:49:32;;;;;;;2.45;2.25;;;26.20;46.30;;;;;;6134002;28;81283;-71
2022/06/16 13:52:33;;;;;;;4.93;2.80;;;26.20;46.30;;;;;;6134553;28;84432;-70
2022/06/16 13:55:33;;;;;;;4.38;2.47;;;26.20;46.40;;;;;;6126147;28;81413;-71
2022/06/16 13:58:34;;;;;;;3.10;2.28;;;26.20;46.50;;;;;;6153093;28;80562;-71
2022/06/16 14:01:34;;;;;;;3.03;2.30;;;26.20;46.40;;;;;;6140558;28;80815;-70
2022/06/16 14:04:35;;;;;;;4.80;2.72;;;26.20;46.60;;;;;;6132043;28;80745;-72
2022/06/16 14:07:35;;;;;;;5.13;2.78;;;26.10;46.60;;;;;;6137226;28;81114;-69
2022/06/16 14:10:37;;;;;;;4.22;2.67;;;26.10;46.90;;;;;;6136825;28;80868;-72
2022/06/16 14:13:37;;;;;;;5.60;2.55;;;26.00;47.10;;;;;;6137084;28;82332;-64
2022/06/16 14:16:38;;;;;;;3.53;2.35;;;26.00;47.00;;;;;;6140733;28;79989;-70
2022/06/16 14:19:39;;;;;;;5.78;2.42;;;26.00;47.30;;;;;;6137223;28;80334;-68
2022/06/16 14:22:40;;;;;;;7.78;2.60;;;26.00;47.50;;;;;;6130874;28;81258;-67
2022/06/16 14:25:40;;;;;;;3.95;2.67;;;25.90;47.50;;;;;;6135603;28;80432;-68
2022/06/16 14:28:41;;;;;;;4.53;2.95;;;25.90;47.70;;;;;;6119225;28;80366;-68
2022/06/16 14:31:41;;;;;;;2.75;2.55;;;25.90;47.60;;;;;;6136447;28;81513;-68
2022/06/16 14:34:42;;;;;;;9.40;3.25;;;25.90;47.70;;;;;;6136504;28;82438;-68
2022/06/16 14:37:42;;;;;;;4.68;3.08;;;25.90;47.90;;;;;;6136078;28;80499;-68
2022/06/16 14:40:43;;;;;;;7.72;2.90;;;25.90;47.40;;;;;;6133283;28;80450;-68
2022/06/16 14:43:43;;;;;;;6.50;3.25;;;25.90;47.40;;;;;;6137081;28;80731;-68
2022/06/16 14:46:44;;;;;;;8.57;3.80;;;25.80;47.40;;;;;;6135387;28;80244;-65
2022/06/16 14:49:44;;;;;;;10.93;3.50;;;25.80;47.70;;;;;;6131193;28;80679;-64
2022/06/16 14:52:45;;;;;;;15.25;3.45;;;25.70;49.30;;;;;;6123017;28;80446;-63
2022/06/16 14:55:45;;;;;;;15.75;3.80;;;25.60;49.50;;;;;;6126467;28;80582;-66
2022/06/16 14:58:46;;;;;;;9.35;3.67;;;25.60;50.70;;;;;;6133918;28;80432;-73
2022/06/16 15:01:46;;;;;;;11.90;3.78;;;25.50;52.80;;;;;;6122820;28;80740;-65
2022/06/16 15:04:47;;;;;;;14.63;4.30;;;25.50;55.00;;;;;;6124904;28;81536;-71
2022/06/16 15:07:47;;;;;;;6.78;3.28;;;25.50;55.00;;;;;;6120755;28;80895;-73
2022/06/16 15:10:48;;;;;;;20.58;3.80;;;25.50;54.60;;;;;;6121711;28;80551;-70
2022/06/16 15:13:48;;;;;;;16.25;4.60;;;25.50;54.90;;;;;;6142983;28;81816;-69
2022/06/16 15:20:09;;;;;;;13.65;3.30;;;25.50;54.80;;;;;;6134649;28;80423;-71
2022/06/16 15:23:09;;;;;;;9.95;3.72;;;25.50;55.20;;;;;;6118213;28;80801;-71
2022/06/16 15:26:10;;;;;;;10.07;3.95;;;25.50;56.00;;;;;;6118861;28;80241;-70
2022/06/16 15:29:13;;;;;;;8.30;3.72;;;25.50;55.70;;;;;;6122234;28;80038;-73
2022/06/16 15:38:52;;;;;;;9.23;3.40;;;25.50;56.90;;;;;;6132609;28;80492;-72
2022/06/16 15:41:53;;;;;;;9.32;3.85;;;25.50;57.70;;;;;;6131476;28;80440;-69
2022/06/16 15:44:54;;;;;;;6.70;3.35;;;25.50;58.00;;;;;;6134979;28;80653;-72
2022/06/16 15:47:55;;;;;;;9.90;3.95;;;25.50;58.10;;;;;;6135809;28;80294;-68
2022/06/16 15:50:56;;;;;;;10.32;3.20;;;25.50;58.50;;;;;;6134549;28;80625;-71
2022/06/16 15:53:57;;;;;;;6.68;3.25;;;25.50;58.70;;;;;;6135124;28;80683;-69
2022/06/16 15:56:57;;;;;;;10.50;4.32;;;25.50;59.00;;;;;;6133829;28;81409;-67
2022/06/16 15:59:58;;;;;;;15.30;4.13;;;25.50;59.30;;;;;;6131725;28;80399;-68
2022/06/16 16:02:59;;;;;;;6.75;3.42;;;25.50;59.20;;;;;;6124579;28;80984;-70
2022/06/16 16:06:01;;;;;;;6.60;2.97;;;25.50;59.40;;;;;;6126471;28;80569;-73
2022/06/16 16:09:01;;;;;;;5.93;2.60;;;25.50;59.20;;;;;;6128214;28;80585;-67
2022/06/16 16:12:02;;;;;;;71.45;32.53;;;25.40;59.00;;;;;;6123666;28;81049;-67
2022/06/16 16:15:02;;;;;;;195.35;87.97;;;25.40;59.30;;;;;;6130638;28;83261;-66
2022/06/16 16:18:03;;;;;;;209.27;99.18;;;25.30;60.00;;;;;;6128101;28;82992;-67